sensor_id;sensor_type;location;lat;lon;timestamp;P1;durP1;ratioP1;P2;durP2;ratioP2
5357;SDS011;2702;51.014;7.170;2023-10-09T00:02:11;11.63;;;10.20;;
5357;SDS011;2702;51.014;7.170;2023-10-09T00:04:40;15.60;;;9.73;;
5357;SDS011;2702;51.014;7.170;2023-10-09T00:07:11;13.60;;;10.57;;
5357;SDS011;2702;51.014;7.170;2023-10-09T00:09:37;12.40;;;10.00;;
5357;SDS011;2702;51.014;7.170;2023-10-09T00:12:16;10.90;;;9.60;;
5357;SDS011;2702;51.014;7.170;2023-10-09T00:14:54;9.73;;;8.73;;
5357;SDS011;2702;51.014;7.170;2023-10-09T00:17:34;10.50;;;8.87;;
5357;SDS011;2702;51.014;7.170;2023-10-09T00:20:04;11.67;;;8.83;;
5357;SDS011;2702;51.014;7.170;2023-10-09T00:22:34;11.47;;;9.67;;
5357;SDS011;2702;51.014;7.170;2023-10-09T00:25:07;13.40;;;9.97;;
5357;SDS011;2702;51.014;7.170;2023-10-09T00:27:38;11.23;;;8.27;;
5357;SDS011;2702;51.014;7.170;2023-10-09T00:30:12;8.70;;;7.70;;
5357;SDS011;2702;51.014;7.170;2023-10-09T00:32:44;8.90;;;7.40;;
5357;SDS011;2702;51.014;7.170;2023-10-09T00:35:25;9.13;;;8.20;;
5357;SDS011;2702;51.014;7.170;2023-10-09T00:38:20;12.07;;;8.20;;
5357;SDS011;2702;51.014;7.170;2023-10-09T00:40:50;10.63;;;8.33;;
5357;SDS011;2702;51.014;7.170;2023-10-09T00:43:32;11.30;;;8.07;;
5357;SDS011;2702;51.014;7.170;2023-10-09T00:46:02;11.40;;;7.67;;
5357;SDS011;2702;51.014;7.170;2023-10-09T00:48:34;8.80;;;7.83;;
5357;SDS011;2702;51.014;7.170;2023-10-09T00:51:07;9.57;;;8.23;;
5357;SDS011;2702;51.014;7.170;2023-10-09T00:53:48;11.97;;;7.93;;
5357;SDS011;2702;51.014;7.170;2023-10-09T00:56:17;8.80;;;7.30;;
5357;SDS011;2702;51.014;7.170;2023-10-09T00:58:58;11.83;;;8.43;;
5357;SDS011;2702;51.014;7.170;2023-10-09T01:01:40;10.37;;;7.23;;
5357;SDS011;2702;51.014;7.170;2023-10-09T01:04:11;10.50;;;6.70;;
5357;SDS011;2702;51.014;7.170;2023-10-09T01:06:44;12.10;;;7.80;;
5357;SDS011;2702;51.014;7.170;2023-10-09T01:09:12;10.00;;;7.87;;
5357;SDS011;2702;51.014;7.170;2023-10-09T01:11:40;8.67;;;7.50;;
5357;SDS011;2702;51.014;7.170;2023-10-09T01:14:25;10.77;;;6.60;;
5357;SDS011;2702;51.014;7.170;2023-10-09T01:16:52;8.67;;;6.80;;
5357;SDS011;2702;51.014;7.170;2023-10-09T01:19:20;11.77;;;8.37;;
5357;SDS011;2702;51.014;7.170;2023-10-09T01:21:59;8.00;;;6.90;;
5357;SDS011;2702;51.014;7.170;2023-10-09T01:24:42;8.37;;;7.30;;
5357;SDS011;2702;51.014;7.170;2023-10-09T01:27:10;12.33;;;8.03;;
5357;SDS011;2702;51.014;7.170;2023-10-09T01:29:42;7.00;;;6.30;;
5357;SDS011;2702;51.014;7.170;2023-10-09T01:32:11;7.53;;;6.73;;
5357;SDS011;2702;51.014;7.170;2023-10-09T01:34:45;7.93;;;7.07;;
5357;SDS011;2702;51.014;7.170;2023-10-09T01:37:19;7.93;;;6.80;;
5357;SDS011;2702;51.014;7.170;2023-10-09T01:39:55;9.90;;;7.47;;
5357;SDS011;2702;51.014;7.170;2023-10-09T01:42:43;8.70;;;7.00;;
5357;SDS011;2702;51.014;7.170;2023-10-09T01:45:12;9.17;;;7.00;;
5357;SDS011;2702;51.014;7.170;2023-10-09T01:47:45;9.30;;;6.97;;
5357;SDS011;2702;51.014;7.170;2023-10-09T01:50:19;9.30;;;7.30;;
5357;SDS011;2702;51.014;7.170;2023-10-09T01:53:01;8.00;;;7.20;;
5357;SDS011;2702;51.014;7.170;2023-10-09T01:55:29;9.93;;;7.23;;
5357;SDS011;2702;51.014;7.170;2023-10-09T01:58:07;7.90;;;7.07;;
5357;SDS011;2702;51.014;7.170;2023-10-09T02:00:50;7.63;;;6.47;;
5357;SDS011;2702;51.014;7.170;2023-10-09T02:03:27;8.30;;;6.83;;
5357;SDS011;2702;51.014;7.170;2023-10-09T02:06:02;8.10;;;6.83;;
5357;SDS011;2702;51.014;7.170;2023-10-09T02:08:30;7.77;;;6.97;;
5357;SDS011;2702;51.014;7.170;2023-10-09T02:11:01;8.40;;;6.50;;
5357;SDS011;2702;51.014;7.170;2023-10-09T02:13:28;9.50;;;8.07;;
5357;SDS011;2702;51.014;7.170;2023-10-09T02:16:00;8.57;;;6.90;;
5357;SDS011;2702;51.014;7.170;2023-10-09T02:18:40;8.40;;;7.50;;
5357;SDS011;2702;51.014;7.170;2023-10-09T02:21:21;9.93;;;7.53;;
5357;SDS011;2702;51.014;7.170;2023-10-09T02:24:06;9.83;;;7.10;;
5357;SDS011;2702;51.014;7.170;2023-10-09T02:26:35;8.60;;;7.50;;
5357;SDS011;2702;51.014;7.170;2023-10-09T02:29:04;9.50;;;7.37;;
5357;SDS011;2702;51.014;7.170;2023-10-09T02:31:41;8.97;;;6.70;;
5357;SDS011;2702;51.014;7.170;2023-10-09T02:34:17;7.70;;;6.37;;
5357;SDS011;2702;51.014;7.170;2023-10-09T02:36:51;8.40;;;6.07;;
5357;SDS011;2702;51.014;7.170;2023-10-09T02:39:24;6.20;;;5.60;;
5357;SDS011;2702;51.014;7.170;2023-10-09T02:41:55;8.87;;;7.40;;
5357;SDS011;2702;51.014;7.170;2023-10-09T02:44:41;7.33;;;6.07;;
5357;SDS011;2702;51.014;7.170;2023-10-09T02:47:19;7.03;;;6.33;;
5357;SDS011;2702;51.014;7.170;2023-10-09T02:49:50;8.07;;;6.47;;
5357;SDS011;2702;51.014;7.170;2023-10-09T02:52:19;11.70;;;7.60;;
5357;SDS011;2702;51.014;7.170;2023-10-09T02:54:51;8.07;;;6.30;;
5357;SDS011;2702;51.014;7.170;2023-10-09T02:57:38;10.00;;;6.17;;
5357;SDS011;2702;51.014;7.170;2023-10-09T03:00:07;8.20;;;6.73;;
5357;SDS011;2702;51.014;7.170;2023-10-09T03:02:34;11.27;;;7.57;;
5357;SDS011;2702;51.014;7.170;2023-10-09T03:05:06;8.30;;;6.37;;
5357;SDS011;2702;51.014;7.170;2023-10-09T03:07:38;6.83;;;5.90;;
5357;SDS011;2702;51.014;7.170;2023-10-09T03:10:08;8.23;;;6.70;;
5357;SDS011;2702;51.014;7.170;2023-10-09T03:12:35;7.10;;;6.17;;
5357;SDS011;2702;51.014;7.170;2023-10-09T03:15:02;7.70;;;6.10;;
5357;SDS011;2702;51.014;7.170;2023-10-09T03:17:32;8.13;;;6.37;;
5357;SDS011;2702;51.014;7.170;2023-10-09T03:20:06;7.20;;;6.33;;
5357;SDS011;2702;51.014;7.170;2023-10-09T03:22:38;7.17;;;6.43;;
5357;SDS011;2702;51.014;7.170;2023-10-09T03:25:05;9.00;;;6.77;;
5357;SDS011;2702;51.014;7.170;2023-10-09T03:27:40;13.33;;;7.10;;
5357;SDS011;2702;51.014;7.170;2023-10-09T03:30:14;7.60;;;5.57;;
5357;SDS011;2702;51.014;7.170;2023-10-09T03:32:43;10.17;;;6.87;;
5357;SDS011;2702;51.014;7.170;2023-10-09T03:35:13;8.13;;;6.43;;
5357;SDS011;2702;51.014;7.170;2023-10-09T03:37:43;10.83;;;6.80;;
5357;SDS011;2702;51.014;7.170;2023-10-09T03:40:09;9.10;;;7.00;;
5357;SDS011;2702;51.014;7.170;2023-10-09T03:42:45;9.67;;;6.63;;
5357;SDS011;2702;51.014;7.170;2023-10-09T03:45:12;10.83;;;6.47;;
5357;SDS011;2702;51.014;7.170;2023-10-09T03:47:44;7.30;;;6.53;;
5357;SDS011;2702;51.014;7.170;2023-10-09T03:50:13;7.13;;;6.43;;
5357;SDS011;2702;51.014;7.170;2023-10-09T03:53:02;8.37;;;7.00;;
5357;SDS011;2702;51.014;7.170;2023-10-09T03:55:34;9.67;;;7.33;;
5357;SDS011;2702;51.014;7.170;2023-10-09T03:58:04;9.27;;;7.87;;
5357;SDS011;2702;51.014;7.170;2023-10-09T04:00:31;10.27;;;7.37;;
5357;SDS011;2702;51.014;7.170;2023-10-09T04:03:00;8.90;;;7.57;;
5357;SDS011;2702;51.014;7.170;2023-10-09T04:05:28;9.43;;;7.77;;
5357;SDS011;2702;51.014;7.170;2023-10-09T04:07:55;7.53;;;6.50;;
5357;SDS011;2702;51.014;7.170;2023-10-09T04:10:24;9.33;;;7.63;;
5357;SDS011;2702;51.014;7.170;2023-10-09T04:13:10;8.83;;;7.43;;
5357;SDS011;2702;51.014;7.170;2023-10-09T04:15:42;8.90;;;7.20;;
5357;SDS011;2702;51.014;7.170;2023-10-09T04:18:09;9.43;;;6.43;;
5357;SDS011;2702;51.014;7.170;2023-10-09T04:20:42;7.80;;;6.50;;
5357;SDS011;2702;51.014;7.170;2023-10-09T04:23:41;10.10;;;7.30;;
5357;SDS011;2702;51.014;7.170;2023-10-09T04:26:47;11.13;;;7.03;;
5357;SDS011;2702;51.014;7.170;2023-10-09T04:29:14;9.20;;;6.63;;
5357;SDS011;2702;51.014;7.170;2023-10-09T04:31:55;7.63;;;6.83;;
5357;SDS011;2702;51.014;7.170;2023-10-09T04:34:22;10.37;;;7.50;;
5357;SDS011;2702;51.014;7.170;2023-10-09T04:36:57;9.70;;;8.33;;
5357;SDS011;2702;51.014;7.170;2023-10-09T04:39:29;10.10;;;7.50;;
5357;SDS011;2702;51.014;7.170;2023-10-09T04:41:56;11.00;;;8.17;;
5357;SDS011;2702;51.014;7.170;2023-10-09T04:44:42;9.60;;;7.10;;
5357;SDS011;2702;51.014;7.170;2023-10-09T04:47:28;10.17;;;7.47;;
5357;SDS011;2702;51.014;7.170;2023-10-09T04:50:08;9.53;;;8.13;;
5357;SDS011;2702;51.014;7.170;2023-10-09T04:52:35;9.07;;;8.03;;
5357;SDS011;2702;51.014;7.170;2023-10-09T04:55:02;10.47;;;7.90;;
5357;SDS011;2702;51.014;7.170;2023-10-09T04:57:37;8.43;;;6.93;;
5357;SDS011;2702;51.014;7.170;2023-10-09T05:00:12;9.10;;;7.57;;
5357;SDS011;2702;51.014;7.170;2023-10-09T05:02:56;8.97;;;7.87;;
5357;SDS011;2702;51.014;7.170;2023-10-09T05:05:30;9.10;;;7.63;;
5357;SDS011;2702;51.014;7.170;2023-10-09T05:08:09;9.70;;;7.80;;
5357;SDS011;2702;51.014;7.170;2023-10-09T05:10:46;8.83;;;7.50;;
5357;SDS011;2702;51.014;7.170;2023-10-09T05:13:28;10.70;;;8.10;;
5357;SDS011;2702;51.014;7.170;2023-10-09T05:16:06;9.87;;;7.77;;
5357;SDS011;2702;51.014;7.170;2023-10-09T05:18:55;12.70;;;8.20;;
5357;SDS011;2702;51.014;7.170;2023-10-09T05:21:23;11.60;;;8.40;;
5357;SDS011;2702;51.014;7.170;2023-10-09T05:23:57;9.53;;;8.47;;
5357;SDS011;2702;51.014;7.170;2023-10-09T05:26:41;11.33;;;8.50;;
5357;SDS011;2702;51.014;7.170;2023-10-09T05:29:15;9.80;;;8.80;;
5357;SDS011;2702;51.014;7.170;2023-10-09T05:31:54;10.63;;;9.53;;
5357;SDS011;2702;51.014;7.170;2023-10-09T05:34:21;10.80;;;8.67;;
5357;SDS011;2702;51.014;7.170;2023-10-09T05:36:51;9.43;;;7.90;;
5357;SDS011;2702;51.014;7.170;2023-10-09T05:39:17;11.87;;;9.07;;
5357;SDS011;2702;51.014;7.170;2023-10-09T05:42:04;9.87;;;8.33;;
5357;SDS011;2702;51.014;7.170;2023-10-09T05:44:35;9.97;;;8.60;;
5357;SDS011;2702;51.014;7.170;2023-10-09T05:47:20;9.33;;;8.40;;
5357;SDS011;2702;51.014;7.170;2023-10-09T05:50:01;13.37;;;8.93;;
5357;SDS011;2702;51.014;7.170;2023-10-09T05:52:33;14.37;;;9.50;;
5357;SDS011;2702;51.014;7.170;2023-10-09T05:55:03;12.90;;;8.23;;
5357;SDS011;2702;51.014;7.170;2023-10-09T05:57:43;11.13;;;9.40;;
5357;SDS011;2702;51.014;7.170;2023-10-09T06:00:22;10.40;;;8.50;;
5357;SDS011;2702;51.014;7.170;2023-10-09T06:03:07;10.90;;;8.20;;
5357;SDS011;2702;51.014;7.170;2023-10-09T06:05:46;12.10;;;8.93;;
5357;SDS011;2702;51.014;7.170;2023-10-09T06:08:17;10.60;;;8.37;;
5357;SDS011;2702;51.014;7.170;2023-10-09T06:10:51;11.07;;;9.53;;
5357;SDS011;2702;51.014;7.170;2023-10-09T06:13:38;9.27;;;8.20;;
5357;SDS011;2702;51.014;7.170;2023-10-09T06:16:06;9.23;;;8.20;;
5357;SDS011;2702;51.014;7.170;2023-10-09T06:18:55;9.10;;;8.13;;
5357;SDS011;2702;51.014;7.170;2023-10-09T06:21:48;10.47;;;8.13;;
5357;SDS011;2702;51.014;7.170;2023-10-09T06:24:21;12.40;;;8.40;;
5357;SDS011;2702;51.014;7.170;2023-10-09T06:27:07;9.20;;;7.87;;
5357;SDS011;2702;51.014;7.170;2023-10-09T06:29:42;10.50;;;8.70;;
5357;SDS011;2702;51.014;7.170;2023-10-09T06:32:14;9.40;;;8.23;;
5357;SDS011;2702;51.014;7.170;2023-10-09T06:34:54;9.40;;;7.93;;
5357;SDS011;2702;51.014;7.170;2023-10-09T06:37:43;9.77;;;8.53;;
5357;SDS011;2702;51.014;7.170;2023-10-09T06:40:30;10.30;;;8.17;;
5357;SDS011;2702;51.014;7.170;2023-10-09T06:43:16;8.57;;;7.77;;
5357;SDS011;2702;51.014;7.170;2023-10-09T06:45:53;11.20;;;8.47;;
5357;SDS011;2702;51.014;7.170;2023-10-09T06:48:24;10.43;;;7.67;;
5357;SDS011;2702;51.014;7.170;2023-10-09T06:51:02;12.47;;;9.50;;
5357;SDS011;2702;51.014;7.170;2023-10-09T06:53:52;8.77;;;7.90;;
5357;SDS011;2702;51.014;7.170;2023-10-09T06:56:25;10.83;;;8.30;;
5357;SDS011;2702;51.014;7.170;2023-10-09T07:01:47;10.43;;;8.07;;
5357;SDS011;2702;51.014;7.170;2023-10-09T07:04:34;14.23;;;8.30;;
5357;SDS011;2702;51.014;7.170;2023-10-09T07:07:01;9.10;;;7.60;;
5357;SDS011;2702;51.014;7.170;2023-10-09T07:09:33;7.53;;;6.83;;
5357;SDS011;2702;51.014;7.170;2023-10-09T07:12:09;8.67;;;7.27;;
5357;SDS011;2702;51.014;7.170;2023-10-09T07:14:40;9.73;;;7.47;;
5357;SDS011;2702;51.014;7.170;2023-10-09T07:17:07;10.37;;;7.43;;
5357;SDS011;2702;51.014;7.170;2023-10-09T07:19:53;9.37;;;7.70;;
5357;SDS011;2702;51.014;7.170;2023-10-09T07:22:20;8.30;;;6.93;;
5357;SDS011;2702;51.014;7.170;2023-10-09T07:24:51;8.40;;;7.60;;
5357;SDS011;2702;51.014;7.170;2023-10-09T07:27:25;8.83;;;7.33;;
5357;SDS011;2702;51.014;7.170;2023-10-09T07:30:16;9.37;;;8.17;;
5357;SDS011;2702;51.014;7.170;2023-10-09T07:32:56;11.27;;;8.10;;
5357;SDS011;2702;51.014;7.170;2023-10-09T07:35:34;11.20;;;7.63;;
5357;SDS011;2702;51.014;7.170;2023-10-09T07:40:40;10.30;;;7.57;;
5357;SDS011;2702;51.014;7.170;2023-10-09T07:43:45;8.97;;;7.40;;
5357;SDS011;2702;51.014;7.170;2023-10-09T07:46:16;11.90;;;8.60;;
5357;SDS011;2702;51.014;7.170;2023-10-09T07:49:10;12.23;;;9.70;;
5357;SDS011;2702;51.014;7.170;2023-10-09T07:51:40;12.47;;;9.60;;
5357;SDS011;2702;51.014;7.170;2023-10-09T07:54:10;11.97;;;9.23;;
5357;SDS011;2702;51.014;7.170;2023-10-09T07:56:41;10.13;;;9.03;;
5357;SDS011;2702;51.014;7.170;2023-10-09T07:59:12;10.60;;;9.07;;
5357;SDS011;2702;51.014;7.170;2023-10-09T08:01:44;9.97;;;8.80;;
5357;SDS011;2702;51.014;7.170;2023-10-09T08:04:19;10.73;;;9.70;;
5357;SDS011;2702;51.014;7.170;2023-10-09T08:07:09;11.53;;;8.73;;
5357;SDS011;2702;51.014;7.170;2023-10-09T08:09:46;10.40;;;9.40;;
5357;SDS011;2702;51.014;7.170;2023-10-09T08:12:16;10.60;;;9.17;;
5357;SDS011;2702;51.014;7.170;2023-10-09T08:15:06;11.70;;;8.97;;
5357;SDS011;2702;51.014;7.170;2023-10-09T08:20:22;10.10;;;8.80;;
5357;SDS011;2702;51.014;7.170;2023-10-09T08:22:53;11.70;;;9.37;;
5357;SDS011;2702;51.014;7.170;2023-10-09T08:25:23;10.87;;;8.63;;
5357;SDS011;2702;51.014;7.170;2023-10-09T08:27:53;9.97;;;9.03;;
5357;SDS011;2702;51.014;7.170;2023-10-09T08:30:24;11.27;;;9.00;;
5357;SDS011;2702;51.014;7.170;2023-10-09T08:32:51;11.93;;;9.07;;
5357;SDS011;2702;51.014;7.170;2023-10-09T08:35:47;11.60;;;8.90;;
5357;SDS011;2702;51.014;7.170;2023-10-09T08:38:15;10.17;;;9.17;;
5357;SDS011;2702;51.014;7.170;2023-10-09T08:40:49;11.10;;;8.27;;
5357;SDS011;2702;51.014;7.170;2023-10-09T08:43:18;12.07;;;10.13;;
5357;SDS011;2702;51.014;7.170;2023-10-09T08:45:47;11.63;;;9.50;;
5357;SDS011;2702;51.014;7.170;2023-10-09T08:48:26;12.03;;;10.00;;
5357;SDS011;2702;51.014;7.170;2023-10-09T08:50:55;11.50;;;9.63;;
5357;SDS011;2702;51.014;7.170;2023-10-09T08:53:22;14.33;;;10.70;;
5357;SDS011;2702;51.014;7.170;2023-10-09T08:55:50;9.93;;;8.93;;
5357;SDS011;2702;51.014;7.170;2023-10-09T08:58:19;11.00;;;9.80;;
5357;SDS011;2702;51.014;7.170;2023-10-09T09:01:03;14.57;;;10.43;;
5357;SDS011;2702;51.014;7.170;2023-10-09T09:03:40;10.90;;;8.83;;
5357;SDS011;2702;51.014;7.170;2023-10-09T09:06:11;10.30;;;9.10;;
5357;SDS011;2702;51.014;7.170;2023-10-09T09:08:40;13.70;;;10.37;;
5357;SDS011;2702;51.014;7.170;2023-10-09T09:11:14;12.23;;;10.30;;
5357;SDS011;2702;51.014;7.170;2023-10-09T09:14:04;13.60;;;9.50;;
5357;SDS011;2702;51.014;7.170;2023-10-09T09:16:32;11.60;;;9.37;;
5357;SDS011;2702;51.014;7.170;2023-10-09T09:19:05;10.93;;;9.73;;
5357;SDS011;2702;51.014;7.170;2023-10-09T09:21:39;10.67;;;9.77;;
5357;SDS011;2702;51.014;7.170;2023-10-09T09:24:12;12.77;;;9.53;;
5357;SDS011;2702;51.014;7.170;2023-10-09T09:26:52;9.73;;;8.70;;
5357;SDS011;2702;51.014;7.170;2023-10-09T09:32:03;13.03;;;8.73;;
5357;SDS011;2702;51.014;7.170;2023-10-09T09:34:52;11.97;;;8.57;;
5357;SDS011;2702;51.014;7.170;2023-10-09T09:37:32;11.17;;;9.40;;
5357;SDS011;2702;51.014;7.170;2023-10-09T09:40:08;9.80;;;8.83;;
5357;SDS011;2702;51.014;7.170;2023-10-09T09:42:59;10.63;;;9.07;;
5357;SDS011;2702;51.014;7.170;2023-10-09T09:45:36;10.87;;;8.63;;
5357;SDS011;2702;51.014;7.170;2023-10-09T09:48:04;11.50;;;9.30;;
5357;SDS011;2702;51.014;7.170;2023-10-09T09:50:32;10.90;;;9.50;;
5357;SDS011;2702;51.014;7.170;2023-10-09T09:53:02;10.53;;;8.80;;
5357;SDS011;2702;51.014;7.170;2023-10-09T09:55:34;12.70;;;7.80;;
5357;SDS011;2702;51.014;7.170;2023-10-09T09:58:07;9.50;;;8.03;;
5357;SDS011;2702;51.014;7.170;2023-10-09T10:00:44;10.33;;;7.87;;
5357;SDS011;2702;51.014;7.170;2023-10-09T10:06:09;10.40;;;7.93;;
5357;SDS011;2702;51.014;7.170;2023-10-09T10:08:38;10.13;;;8.43;;
5357;SDS011;2702;51.014;7.170;2023-10-09T10:11:07;9.53;;;8.60;;
5357;SDS011;2702;51.014;7.170;2023-10-09T10:13:54;12.60;;;8.20;;
5357;SDS011;2702;51.014;7.170;2023-10-09T10:16:27;9.20;;;8.17;;
5357;SDS011;2702;51.014;7.170;2023-10-09T10:21:37;15.00;;;8.87;;
5357;SDS011;2702;51.014;7.170;2023-10-09T10:24:40;9.40;;;8.47;;
5357;SDS011;2702;51.014;7.170;2023-10-09T10:29:37;11.40;;;7.80;;
5357;SDS011;2702;51.014;7.170;2023-10-09T10:32:04;10.03;;;7.30;;
5357;SDS011;2702;51.014;7.170;2023-10-09T10:40:23;10.17;;;7.57;;
5357;SDS011;2702;51.014;7.170;2023-10-09T10:43:28;8.13;;;7.30;;
5357;SDS011;2702;51.014;7.170;2023-10-09T10:46:12;8.10;;;6.30;;
5357;SDS011;2702;51.014;7.170;2023-10-09T10:48:50;8.03;;;6.40;;
5357;SDS011;2702;51.014;7.170;2023-10-09T10:51:26;10.07;;;6.90;;
5357;SDS011;2702;51.014;7.170;2023-10-09T10:54:03;7.87;;;6.17;;
5357;SDS011;2702;51.014;7.170;2023-10-09T10:56:49;8.90;;;6.00;;
5357;SDS011;2702;51.014;7.170;2023-10-09T10:59:17;9.50;;;6.30;;
5357;SDS011;2702;51.014;7.170;2023-10-09T11:01:53;9.03;;;6.47;;
5357;SDS011;2702;51.014;7.170;2023-10-09T11:04:24;8.00;;;7.10;;
5357;SDS011;2702;51.014;7.170;2023-10-09T11:06:55;8.40;;;6.03;;
5357;SDS011;2702;51.014;7.170;2023-10-09T11:09:45;5.97;;;5.20;;
5357;SDS011;2702;51.014;7.170;2023-10-09T11:15:08;6.50;;;5.47;;
5357;SDS011;2702;51.014;7.170;2023-10-09T11:17:59;9.63;;;6.30;;
5357;SDS011;2702;51.014;7.170;2023-10-09T11:20:33;7.73;;;5.40;;
5357;SDS011;2702;51.014;7.170;2023-10-09T11:23:02;7.90;;;6.63;;
5357;SDS011;2702;51.014;7.170;2023-10-09T11:25:42;6.50;;;5.90;;
5357;SDS011;2702;51.014;7.170;2023-10-09T11:28:33;8.60;;;6.30;;
5357;SDS011;2702;51.014;7.170;2023-10-09T11:31:14;9.43;;;6.37;;
5357;SDS011;2702;51.014;7.170;2023-10-09T11:33:48;7.00;;;5.47;;
5357;SDS011;2702;51.014;7.170;2023-10-09T11:36:22;6.57;;;5.40;;
5357;SDS011;2702;51.014;7.170;2023-10-09T11:38:58;8.83;;;6.20;;
5357;SDS011;2702;51.014;7.170;2023-10-09T11:41:40;9.27;;;5.27;;
5357;SDS011;2702;51.014;7.170;2023-10-09T11:44:15;8.20;;;6.33;;
5357;SDS011;2702;51.014;7.170;2023-10-09T11:47:00;8.87;;;6.00;;
5357;SDS011;2702;51.014;7.170;2023-10-09T11:52:57;6.33;;;5.77;;
5357;SDS011;2702;51.014;7.170;2023-10-09T11:55:43;8.87;;;5.63;;
5357;SDS011;2702;51.014;7.170;2023-10-09T11:58:15;9.40;;;5.53;;
5357;SDS011;2702;51.014;7.170;2023-10-09T12:00:49;5.97;;;5.37;;
5357;SDS011;2702;51.014;7.170;2023-10-09T12:03:29;5.73;;;5.23;;
5357;SDS011;2702;51.014;7.170;2023-10-09T12:06:00;6.83;;;6.17;;
5357;SDS011;2702;51.014;7.170;2023-10-09T12:08:31;8.53;;;7.10;;
5357;SDS011;2702;51.014;7.170;2023-10-09T12:10:58;8.13;;;6.83;;
5357;SDS011;2702;51.014;7.170;2023-10-09T12:13:24;9.60;;;7.07;;
5357;SDS011;2702;51.014;7.170;2023-10-09T12:15:51;9.40;;;7.43;;
5357;SDS011;2702;51.014;7.170;2023-10-09T12:18:21;10.07;;;7.83;;
5357;SDS011;2702;51.014;7.170;2023-10-09T12:20:50;10.00;;;7.10;;
5357;SDS011;2702;51.014;7.170;2023-10-09T12:23:17;11.93;;;8.10;;
5357;SDS011;2702;51.014;7.170;2023-10-09T12:25:45;8.50;;;7.13;;
5357;SDS011;2702;51.014;7.170;2023-10-09T12:28:14;7.10;;;6.40;;
5357;SDS011;2702;51.014;7.170;2023-10-09T12:30:40;13.57;;;7.00;;
5357;SDS011;2702;51.014;7.170;2023-10-09T12:33:07;9.37;;;6.00;;
5357;SDS011;2702;51.014;7.170;2023-10-09T12:35:38;8.20;;;6.90;;
5357;SDS011;2702;51.014;7.170;2023-10-09T12:38:05;10.60;;;6.83;;
5357;SDS011;2702;51.014;7.170;2023-10-09T12:40:36;12.37;;;7.20;;
5357;SDS011;2702;51.014;7.170;2023-10-09T12:43:05;9.30;;;7.20;;
5357;SDS011;2702;51.014;7.170;2023-10-09T12:45:41;8.33;;;6.30;;
5357;SDS011;2702;51.014;7.170;2023-10-09T12:48:08;10.43;;;6.63;;
5357;SDS011;2702;51.014;7.170;2023-10-09T12:50:35;6.97;;;6.20;;
5357;SDS011;2702;51.014;7.170;2023-10-09T12:53:08;8.67;;;6.63;;
5357;SDS011;2702;51.014;7.170;2023-10-09T12:55:37;7.77;;;6.97;;
5357;SDS011;2702;51.014;7.170;2023-10-09T12:58:09;11.30;;;6.73;;
5357;SDS011;2702;51.014;7.170;2023-10-09T13:00:41;10.23;;;6.83;;
5357;SDS011;2702;51.014;7.170;2023-10-09T13:03:15;8.93;;;6.27;;
5357;SDS011;2702;51.014;7.170;2023-10-09T13:05:52;9.90;;;7.50;;
5357;SDS011;2702;51.014;7.170;2023-10-09T13:11:02;9.77;;;7.47;;
5357;SDS011;2702;51.014;7.170;2023-10-09T13:13:39;7.93;;;7.10;;
5357;SDS011;2702;51.014;7.170;2023-10-09T13:16:12;11.43;;;7.53;;
5357;SDS011;2702;51.014;7.170;2023-10-09T13:18:55;7.17;;;6.00;;
5357;SDS011;2702;51.014;7.170;2023-10-09T13:21:25;8.47;;;6.30;;
5357;SDS011;2702;51.014;7.170;2023-10-09T13:23:52;9.63;;;6.97;;
5357;SDS011;2702;51.014;7.170;2023-10-09T13:26:23;13.30;;;7.60;;
5357;SDS011;2702;51.014;7.170;2023-10-09T13:28:54;9.70;;;7.20;;
5357;SDS011;2702;51.014;7.170;2023-10-09T13:31:21;9.27;;;7.00;;
5357;SDS011;2702;51.014;7.170;2023-10-09T13:33:52;9.87;;;7.20;;
5357;SDS011;2702;51.014;7.170;2023-10-09T13:36:23;9.60;;;7.90;;
5357;SDS011;2702;51.014;7.170;2023-10-09T13:38:55;12.33;;;7.53;;
5357;SDS011;2702;51.014;7.170;2023-10-09T13:41:23;9.00;;;7.73;;
5357;SDS011;2702;51.014;7.170;2023-10-09T13:43:55;7.90;;;6.97;;
5357;SDS011;2702;51.014;7.170;2023-10-09T13:46:23;9.63;;;7.20;;
5357;SDS011;2702;51.014;7.170;2023-10-09T13:48:49;11.80;;;8.10;;
5357;SDS011;2702;51.014;7.170;2023-10-09T13:51:18;9.63;;;7.70;;
5357;SDS011;2702;51.014;7.170;2023-10-09T13:53:45;8.87;;;7.77;;
5357;SDS011;2702;51.014;7.170;2023-10-09T13:56:15;7.83;;;6.93;;
5357;SDS011;2702;51.014;7.170;2023-10-09T13:58:50;8.20;;;7.40;;
5357;SDS011;2702;51.014;7.170;2023-10-09T14:01:18;11.17;;;7.60;;
5357;SDS011;2702;51.014;7.170;2023-10-09T14:03:56;9.90;;;8.43;;
5357;SDS011;2702;51.014;7.170;2023-10-09T14:06:25;11.67;;;8.30;;
5357;SDS011;2702;51.014;7.170;2023-10-09T14:08:59;12.97;;;8.40;;
5357;SDS011;2702;51.014;7.170;2023-10-09T14:11:30;9.73;;;8.20;;
5357;SDS011;2702;51.014;7.170;2023-10-09T14:13:57;10.40;;;8.37;;
5357;SDS011;2702;51.014;7.170;2023-10-09T14:16:27;10.63;;;8.77;;
5357;SDS011;2702;51.014;7.170;2023-10-09T14:18:54;13.77;;;8.83;;
5357;SDS011;2702;51.014;7.170;2023-10-09T14:21:26;15.23;;;8.80;;
5357;SDS011;2702;51.014;7.170;2023-10-09T14:23:56;13.83;;;8.63;;
5357;SDS011;2702;51.014;7.170;2023-10-09T14:26:26;8.00;;;7.30;;
5357;SDS011;2702;51.014;7.170;2023-10-09T14:28:55;8.03;;;7.23;;
5357;SDS011;2702;51.014;7.170;2023-10-09T14:31:25;9.57;;;7.17;;
5357;SDS011;2702;51.014;7.170;2023-10-09T14:33:53;9.87;;;8.57;;
5357;SDS011;2702;51.014;7.170;2023-10-09T14:36:20;9.97;;;7.90;;
5357;SDS011;2702;51.014;7.170;2023-10-09T14:38:50;9.73;;;8.30;;
5357;SDS011;2702;51.014;7.170;2023-10-09T14:41:22;10.50;;;8.67;;
5357;SDS011;2702;51.014;7.170;2023-10-09T14:43:52;10.30;;;8.50;;
5357;SDS011;2702;51.014;7.170;2023-10-09T14:46:19;9.00;;;8.10;;
5357;SDS011;2702;51.014;7.170;2023-10-09T14:48:52;9.67;;;8.10;;
5357;SDS011;2702;51.014;7.170;2023-10-09T14:51:20;10.50;;;7.83;;
5357;SDS011;2702;51.014;7.170;2023-10-09T14:53:56;9.63;;;7.90;;
5357;SDS011;2702;51.014;7.170;2023-10-09T14:56:23;10.47;;;9.00;;
5357;SDS011;2702;51.014;7.170;2023-10-09T14:58:55;9.70;;;8.70;;
5357;SDS011;2702;51.014;7.170;2023-10-09T15:01:26;12.53;;;8.13;;
5357;SDS011;2702;51.014;7.170;2023-10-09T15:04:00;11.57;;;8.83;;
5357;SDS011;2702;51.014;7.170;2023-10-09T15:06:26;10.20;;;8.53;;
5357;SDS011;2702;51.014;7.170;2023-10-09T15:08:56;12.17;;;8.20;;
5357;SDS011;2702;51.014;7.170;2023-10-09T15:11:34;9.07;;;8.10;;
5357;SDS011;2702;51.014;7.170;2023-10-09T15:14:04;10.27;;;8.40;;
5357;SDS011;2702;51.014;7.170;2023-10-09T15:16:32;10.20;;;8.10;;
5357;SDS011;2702;51.014;7.170;2023-10-09T15:18:58;10.23;;;8.97;;
5357;SDS011;2702;51.014;7.170;2023-10-09T15:21:30;10.20;;;9.20;;
5357;SDS011;2702;51.014;7.170;2023-10-09T15:23:59;10.13;;;8.17;;
5357;SDS011;2702;51.014;7.170;2023-10-09T15:26:25;11.10;;;8.53;;
5357;SDS011;2702;51.014;7.170;2023-10-09T15:28:59;12.30;;;9.40;;
5357;SDS011;2702;51.014;7.170;2023-10-09T15:31:29;10.57;;;8.80;;
5357;SDS011;2702;51.014;7.170;2023-10-09T15:33:58;9.60;;;7.20;;
5357;SDS011;2702;51.014;7.170;2023-10-09T15:36:25;9.43;;;7.90;;
5357;SDS011;2702;51.014;7.170;2023-10-09T15:38:55;10.57;;;8.20;;
5357;SDS011;2702;51.014;7.170;2023-10-09T15:41:28;12.17;;;8.53;;
5357;SDS011;2702;51.014;7.170;2023-10-09T15:43:58;10.83;;;8.70;;
5357;SDS011;2702;51.014;7.170;2023-10-09T15:46:24;10.20;;;7.37;;
5357;SDS011;2702;51.014;7.170;2023-10-09T15:48:59;9.30;;;7.83;;
5357;SDS011;2702;51.014;7.170;2023-10-09T15:51:29;10.83;;;8.90;;
5357;SDS011;2702;51.014;7.170;2023-10-09T15:53:56;13.47;;;8.60;;
5357;SDS011;2702;51.014;7.170;2023-10-09T15:56:22;10.33;;;7.70;;
5357;SDS011;2702;51.014;7.170;2023-10-09T15:58:49;8.53;;;7.63;;
5357;SDS011;2702;51.014;7.170;2023-10-09T16:01:16;13.93;;;9.10;;
5357;SDS011;2702;51.014;7.170;2023-10-09T16:03:46;8.33;;;6.80;;
5357;SDS011;2702;51.014;7.170;2023-10-09T16:06:14;8.93;;;7.47;;
5357;SDS011;2702;51.014;7.170;2023-10-09T16:08:42;12.40;;;7.83;;
5357;SDS011;2702;51.014;7.170;2023-10-09T16:11:16;9.20;;;7.73;;
5357;SDS011;2702;51.014;7.170;2023-10-09T16:13:44;8.03;;;7.20;;
5357;SDS011;2702;51.014;7.170;2023-10-09T16:16:10;9.27;;;8.10;;
5357;SDS011;2702;51.014;7.170;2023-10-09T16:18:39;9.53;;;8.30;;
5357;SDS011;2702;51.014;7.170;2023-10-09T16:21:05;8.70;;;7.43;;
5357;SDS011;2702;51.014;7.170;2023-10-09T16:23:34;11.70;;;8.70;;